sensor_id;sensor_type;location;lat;lon;timestamp;temperature;humidity
20171;DHT22;10245;51.344;6.620;2023-07-20T00:02:08;16.90;83.40
20171;DHT22;10245;51.344;6.620;2023-07-20T00:04:31;16.80;83.40
20171;DHT22;10245;51.344;6.620;2023-07-20T00:06:55;16.80;83.40
20171;DHT22;10245;51.344;6.620;2023-07-20T00:09:18;16.80;83.40
20171;DHT22;10245;51.344;6.620;2023-07-20T00:11:48;16.80;83.60
20171;DHT22;10245;51.344;6.620;2023-07-20T00:14:12;16.80;83.30
20171;DHT22;10245;51.344;6.620;2023-07-20T00:16:36;16.80;83.30
20171;DHT22;10245;51.344;6.620;2023-07-20T00:19:01;16.80;83.20
20171;DHT22;10245;51.344;6.620;2023-07-20T00:21:24;16.70;83.10
20171;DHT22;10245;51.344;6.620;2023-07-20T00:23:48;16.60;83.20
20171;DHT22;10245;51.344;6.620;2023-07-20T00:26:11;16.60;83.80
20171;DHT22;10245;51.344;6.620;2023-07-20T00:28:34;16.70;83.90
20171;DHT22;10245;51.344;6.620;2023-07-20T00:30:59;16.50;83.80
20171;DHT22;10245;51.344;6.620;2023-07-20T00:33:24;16.50;84.20
20171;DHT22;10245;51.344;6.620;2023-07-20T00:35:49;16.60;83.90
20171;DHT22;10245;51.344;6.620;2023-07-20T00:38:12;16.60;83.70
20171;DHT22;10245;51.344;6.620;2023-07-20T00:40:36;16.50;83.90
20171;DHT22;10245;51.344;6.620;2023-07-20T00:42:59;16.60;84.00
20171;DHT22;10245;51.344;6.620;2023-07-20T00:45:24;16.70;83.80
20171;DHT22;10245;51.344;6.620;2023-07-20T00:47:48;16.70;83.50
20171;DHT22;10245;51.344;6.620;2023-07-20T00:50:12;16.90;83.20
20171;DHT22;10245;51.344;6.620;2023-07-20T00:52:37;16.90;83.80
20171;DHT22;10245;51.344;6.620;2023-07-20T00:55:02;16.90;84.70
20171;DHT22;10245;51.344;6.620;2023-07-20T00:57:26;16.90;85.50
20171;DHT22;10245;51.344;6.620;2023-07-20T00:59:49;16.60;86.50
20171;DHT22;10245;51.344;6.620;2023-07-20T01:02:12;16.70;87.50
20171;DHT22;10245;51.344;6.620;2023-07-20T01:04:36;16.60;87.80
20171;DHT22;10245;51.344;6.620;2023-07-20T01:07:06;16.50;87.90
20171;DHT22;10245;51.344;6.620;2023-07-20T01:09:55;16.50;88.30
20171;DHT22;10245;51.344;6.620;2023-07-20T01:12:27;16.50;88.00
20171;DHT22;10245;51.344;6.620;2023-07-20T01:14:55;16.60;88.00
20171;DHT22;10245;51.344;6.620;2023-07-20T01:17:18;16.60;88.00
20171;DHT22;10245;51.344;6.620;2023-07-20T01:19:41;16.50;88.30
20171;DHT22;10245;51.344;6.620;2023-07-20T01:22:12;16.50;88.50
20171;DHT22;10245;51.344;6.620;2023-07-20T01:25:18;16.40;88.70
20171;DHT22;10245;51.344;6.620;2023-07-20T01:31:18;16.50;88.60
20171;DHT22;10245;51.344;6.620;2023-07-20T01:33:46;16.50;88.60
20171;DHT22;10245;51.344;6.620;2023-07-20T01:36:10;16.50;88.70
20171;DHT22;10245;51.344;6.620;2023-07-20T01:38:34;16.40;88.90
20171;DHT22;10245;51.344;6.620;2023-07-20T01:40:58;16.50;89.20
20171;DHT22;10245;51.344;6.620;2023-07-20T01:43:22;16.40;89.00
20171;DHT22;10245;51.344;6.620;2023-07-20T01:45:45;16.40;88.70
20171;DHT22;10245;51.344;6.620;2023-07-20T01:48:10;16.30;89.00
20171;DHT22;10245;51.344;6.620;2023-07-20T01:50:33;16.30;89.30
20171;DHT22;10245;51.344;6.620;2023-07-20T01:52:57;16.40;89.20
20171;DHT22;10245;51.344;6.620;2023-07-20T01:55:20;16.30;89.00
20171;DHT22;10245;51.344;6.620;2023-07-20T01:57:43;16.20;89.10
20171;DHT22;10245;51.344;6.620;2023-07-20T02:00:07;16.30;89.20
20171;DHT22;10245;51.344;6.620;2023-07-20T02:02:37;16.30;89.30
20171;DHT22;10245;51.344;6.620;2023-07-20T02:05:02;16.20;89.20
20171;DHT22;10245;51.344;6.620;2023-07-20T02:07:25;16.30;89.30
20171;DHT22;10245;51.344;6.620;2023-07-20T02:09:49;16.30;88.80
20171;DHT22;10245;51.344;6.620;2023-07-20T02:12:12;16.40;88.70
20171;DHT22;10245;51.344;6.620;2023-07-20T02:14:35;16.30;88.30
20171;DHT22;10245;51.344;6.620;2023-07-20T02:16:58;16.30;88.20
20171;DHT22;10245;51.344;6.620;2023-07-20T02:19:24;16.30;88.00
20171;DHT22;10245;51.344;6.620;2023-07-20T02:21:49;16.30;87.90
20171;DHT22;10245;51.344;6.620;2023-07-20T02:24:13;16.30;88.10
20171;DHT22;10245;51.344;6.620;2023-07-20T02:26:36;16.30;88.50
20171;DHT22;10245;51.344;6.620;2023-07-20T02:28:59;16.20;88.00
20171;DHT22;10245;51.344;6.620;2023-07-20T02:31:22;16.30;88.30
20171;DHT22;10245;51.344;6.620;2023-07-20T02:33:46;16.20;87.90
20171;DHT22;10245;51.344;6.620;2023-07-20T02:36:09;16.20;87.90
20171;DHT22;10245;51.344;6.620;2023-07-20T02:38:33;16.10;88.20
20171;DHT22;10245;51.344;6.620;2023-07-20T02:40:57;16.10;88.40
20171;DHT22;10245;51.344;6.620;2023-07-20T02:43:20;16.10;88.40
20171;DHT22;10245;51.344;6.620;2023-07-20T02:45:43;16.10;88.30
20171;DHT22;10245;51.344;6.620;2023-07-20T02:48:09;16.00;88.80
20171;DHT22;10245;51.344;6.620;2023-07-20T02:50:32;16.00;88.70
20171;DHT22;10245;51.344;6.620;2023-07-20T02:52:56;16.00;88.80
20171;DHT22;10245;51.344;6.620;2023-07-20T02:55:21;16.00;88.70
20171;DHT22;10245;51.344;6.620;2023-07-20T02:57:44;16.00;88.90
20171;DHT22;10245;51.344;6.620;2023-07-20T03:00:08;16.00;88.80
20171;DHT22;10245;51.344;6.620;2023-07-20T03:02:33;15.90;88.70
20171;DHT22;10245;51.344;6.620;2023-07-20T03:04:56;16.00;88.90
20171;DHT22;10245;51.344;6.620;2023-07-20T03:07:23;15.90;89.00
20171;DHT22;10245;51.344;6.620;2023-07-20T03:09:46;15.80;89.20
20171;DHT22;10245;51.344;6.620;2023-07-20T03:12:11;15.80;89.20
20171;DHT22;10245;51.344;6.620;2023-07-20T03:14:34;15.90;89.00
20171;DHT22;10245;51.344;6.620;2023-07-20T03:16:58;16.00;89.00
20171;DHT22;10245;51.344;6.620;2023-07-20T03:19:22;16.00;89.00
20171;DHT22;10245;51.344;6.620;2023-07-20T03:21:45;16.00;89.10
20171;DHT22;10245;51.344;6.620;2023-07-20T03:24:08;16.00;89.10
20171;DHT22;10245;51.344;6.620;2023-07-20T03:26:32;16.00;89.10
20171;DHT22;10245;51.344;6.620;2023-07-20T03:28:56;15.90;88.90
20171;DHT22;10245;51.344;6.620;2023-07-20T03:31:19;16.00;89.20
20171;DHT22;10245;51.344;6.620;2023-07-20T03:33:43;15.90;89.20
20171;DHT22;10245;51.344;6.620;2023-07-20T03:36:06;15.80;89.40
20171;DHT22;10245;51.344;6.620;2023-07-20T03:38:29;15.70;89.50
20171;DHT22;10245;51.344;6.620;2023-07-20T03:40:54;15.70;89.60
20171;DHT22;10245;51.344;6.620;2023-07-20T03:43:19;15.70;89.80
20171;DHT22;10245;51.344;6.620;2023-07-20T03:45:44;15.70;89.80
20171;DHT22;10245;51.344;6.620;2023-07-20T03:48:09;15.70;89.90
20171;DHT22;10245;51.344;6.620;2023-07-20T03:50:33;15.70;90.00
20171;DHT22;10245;51.344;6.620;2023-07-20T03:52:56;15.80;90.10
20171;DHT22;10245;51.344;6.620;2023-07-20T03:55:19;15.90;90.00
20171;DHT22;10245;51.344;6.620;2023-07-20T03:57:43;15.90;89.90
20171;DHT22;10245;51.344;6.620;2023-07-20T04:00:07;15.90;90.00
20171;DHT22;10245;51.344;6.620;2023-07-20T04:02:36;15.90;90.10
20171;DHT22;10245;51.344;6.620;2023-07-20T04:04:59;15.90;90.00
20171;DHT22;10245;51.344;6.620;2023-07-20T04:07:22;16.00;89.90
20171;DHT22;10245;51.344;6.620;2023-07-20T04:09:46;16.00;89.90
20171;DHT22;10245;51.344;6.620;2023-07-20T04:12:09;16.00;89.80
20171;DHT22;10245;51.344;6.620;2023-07-20T04:14:33;16.10;89.90
20171;DHT22;10245;51.344;6.620;2023-07-20T04:16:56;16.10;90.00
20171;DHT22;10245;51.344;6.620;2023-07-20T04:19:20;16.10;90.10
20171;DHT22;10245;51.344;6.620;2023-07-20T04:21:44;16.10;89.80
20171;DHT22;10245;51.344;6.620;2023-07-20T04:24:07;16.00;90.00
20171;DHT22;10245;51.344;6.620;2023-07-20T04:26:31;16.00;90.00
20171;DHT22;10245;51.344;6.620;2023-07-20T04:28:54;16.10;90.10
20171;DHT22;10245;51.344;6.620;2023-07-20T04:31:27;16.10;90.00
20171;DHT22;10245;51.344;6.620;2023-07-20T04:33:50;16.10;90.00
20171;DHT22;10245;51.344;6.620;2023-07-20T04:36:15;16.10;89.80
20171;DHT22;10245;51.344;6.620;2023-07-20T04:38:41;16.10;90.00
20171;DHT22;10245;51.344;6.620;2023-07-20T04:41:09;16.00;90.00
20171;DHT22;10245;51.344;6.620;2023-07-20T04:43:36;16.10;90.40
20171;DHT22;10245;51.344;6.620;2023-07-20T04:46:00;16.10;90.10
20171;DHT22;10245;51.344;6.620;2023-07-20T04:48:26;16.20;90.00
20171;DHT22;10245;51.344;6.620;2023-07-20T04:50:50;16.10;90.10
20171;DHT22;10245;51.344;6.620;2023-07-20T04:53:16;16.20;90.20
20171;DHT22;10245;51.344;6.620;2023-07-20T04:55:40;16.10;90.20
20171;DHT22;10245;51.344;6.620;2023-07-20T04:58:03;16.10;90.30
20171;DHT22;10245;51.344;6.620;2023-07-20T05:00:27;16.20;90.40
20171;DHT22;10245;51.344;6.620;2023-07-20T05:02:50;16.30;90.20
20171;DHT22;10245;51.344;6.620;2023-07-20T05:05:14;16.30;90.10
20171;DHT22;10245;51.344;6.620;2023-07-20T05:07:37;16.40;89.90
20171;DHT22;10245;51.344;6.620;2023-07-20T05:10:03;16.40;89.90
20171;DHT22;10245;51.344;6.620;2023-07-20T05:12:26;16.20;89.90
20171;DHT22;10245;51.344;6.620;2023-07-20T05:14:50;16.30;90.00
20171;DHT22;10245;51.344;6.620;2023-07-20T05:17:13;16.30;90.00
20171;DHT22;10245;51.344;6.620;2023-07-20T05:19:36;16.30;89.90
20171;DHT22;10245;51.344;6.620;2023-07-20T05:22:01;16.30;90.20
20171;DHT22;10245;51.344;6.620;2023-07-20T05:24:24;16.30;90.00
20171;DHT22;10245;51.344;6.620;2023-07-20T05:26:49;16.20;90.30
20171;DHT22;10245;51.344;6.620;2023-07-20T05:29:12;16.20;90.20
20171;DHT22;10245;51.344;6.620;2023-07-20T05:31:35;16.30;90.20
20171;DHT22;10245;51.344;6.620;2023-07-20T05:33:59;16.30;90.20
20171;DHT22;10245;51.344;6.620;2023-07-20T05:36:22;16.30;90.00
20171;DHT22;10245;51.344;6.620;2023-07-20T05:38:45;16.30;90.10
20171;DHT22;10245;51.344;6.620;2023-07-20T05:41:08;16.40;90.00
20171;DHT22;10245;51.344;6.620;2023-07-20T05:43:33;16.50;89.80
20171;DHT22;10245;51.344;6.620;2023-07-20T05:45:57;16.50;89.00
20171;DHT22;10245;51.344;6.620;2023-07-20T05:48:20;16.60;89.10
20171;DHT22;10245;51.344;6.620;2023-07-20T05:50:43;16.60;88.90
20171;DHT22;10245;51.344;6.620;2023-07-20T05:53:07;16.50;88.70
20171;DHT22;10245;51.344;6.620;2023-07-20T05:55:30;16.60;88.90
20171;DHT22;10245;51.344;6.620;2023-07-20T05:57:54;16.50;88.70
20171;DHT22;10245;51.344;6.620;2023-07-20T06:00:19;16.30;88.40
20171;DHT22;10245;51.344;6.620;2023-07-20T06:02:48;16.30;88.50
20171;DHT22;10245;51.344;6.620;2023-07-20T06:05:11;16.30;88.70
20171;DHT22;10245;51.344;6.620;2023-07-20T06:07:35;16.40;88.60
20171;DHT22;10245;51.344;6.620;2023-07-20T06:09:58;16.30;88.10
20171;DHT22;10245;51.344;6.620;2023-07-20T06:12:21;16.50;88.50
20171;DHT22;10245;51.344;6.620;2023-07-20T06:14:44;16.70;87.70
20171;DHT22;10245;51.344;6.620;2023-07-20T06:17:09;16.80;85.20
20171;DHT22;10245;51.344;6.620;2023-07-20T06:19:32;17.10;86.20
20171;DHT22;10245;51.344;6.620;2023-07-20T06:21:56;17.40;85.80
20171;DHT22;10245;51.344;6.620;2023-07-20T06:24:19;17.70;86.20
20171;DHT22;10245;51.344;6.620;2023-07-20T06:26:42;17.80;84.30
20171;DHT22;10245;51.344;6.620;2023-07-20T06:29:05;17.80;83.80
20171;DHT22;10245;51.344;6.620;2023-07-20T06:31:29;17.50;83.00
20171;DHT22;10245;51.344;6.620;2023-07-20T06:33:53;17.70;84.30
20171;DHT22;10245;51.344;6.620;2023-07-20T06:36:18;17.80;83.70
20171;DHT22;10245;51.344;6.620;2023-07-20T06:38:41;17.40;82.30
20171;DHT22;10245;51.344;6.620;2023-07-20T06:41:24;18.20;82.60
20171;DHT22;10245;51.344;6.620;2023-07-20T06:43:50;18.00;82.10
20171;DHT22;10245;51.344;6.620;2023-07-20T06:46:14;17.30;82.70
20171;DHT22;10245;51.344;6.620;2023-07-20T06:48:37;17.00;83.90
20171;DHT22;10245;51.344;6.620;2023-07-20T06:51:05;17.10;83.70
20171;DHT22;10245;51.344;6.620;2023-07-20T06:53:28;17.00;84.40
20171;DHT22;10245;51.344;6.620;2023-07-20T06:55:52;16.70;84.10
20171;DHT22;10245;51.344;6.620;2023-07-20T06:58:15;16.60;84.30
20171;DHT22;10245;51.344;6.620;2023-07-20T07:00:39;17.00;83.40
20171;DHT22;10245;51.344;6.620;2023-07-20T07:03:02;17.30;82.60
20171;DHT22;10245;51.344;6.620;2023-07-20T07:05:26;17.50;82.40
20171;DHT22;10245;51.344;6.620;2023-07-20T07:07:58;17.40;82.10
20171;DHT22;10245;51.344;6.620;2023-07-20T07:10:21;17.50;82.10
20171;DHT22;10245;51.344;6.620;2023-07-20T07:12:44;17.50;81.60
20171;DHT22;10245;51.344;6.620;2023-07-20T07:15:08;17.20;81.00
20171;DHT22;10245;51.344;6.620;2023-07-20T07:17:32;17.50;80.40
20171;DHT22;10245;51.344;6.620;2023-07-20T07:19:59;17.80;80.70
20171;DHT22;10245;51.344;6.620;2023-07-20T07:22:22;17.80;77.80
20171;DHT22;10245;51.344;6.620;2023-07-20T07:24:47;18.00;80.30
20171;DHT22;10245;51.344;6.620;2023-07-20T07:27:10;18.10;78.80
20171;DHT22;10245;51.344;6.620;2023-07-20T07:29:34;18.10;78.90
20171;DHT22;10245;51.344;6.620;2023-07-20T07:31:57;18.10;79.50
20171;DHT22;10245;51.344;6.620;2023-07-20T07:34:20;17.80;78.10
20171;DHT22;10245;51.344;6.620;2023-07-20T07:36:44;17.60;80.80
20171;DHT22;10245;51.344;6.620;2023-07-20T07:39:08;17.50;79.60
20171;DHT22;10245;51.344;6.620;2023-07-20T07:41:36;17.50;79.60
20171;DHT22;10245;51.344;6.620;2023-07-20T07:43:59;17.50;79.10
20171;DHT22;10245;51.344;6.620;2023-07-20T07:46:23;17.50;79.50
20171;DHT22;10245;51.344;6.620;2023-07-20T07:48:46;17.70;80.40
20171;DHT22;10245;51.344;6.620;2023-07-20T07:51:10;17.60;78.30
20171;DHT22;10245;51.344;6.620;2023-07-20T07:53:33;17.40;79.40
20171;DHT22;10245;51.344;6.620;2023-07-20T07:55:58;17.90;80.00
20171;DHT22;10245;51.344;6.620;2023-07-20T07:58:22;18.30;79.00
20171;DHT22;10245;51.344;6.620;2023-07-20T08:00:45;18.60;76.90
20171;DHT22;10245;51.344;6.620;2023-07-20T08:03:10;18.40;74.70
20171;DHT22;10245;51.344;6.620;2023-07-20T08:05:33;18.60;74.30
20171;DHT22;10245;51.344;6.620;2023-07-20T08:07:57;18.50;73.20
20171;DHT22;10245;51.344;6.620;2023-07-20T08:10:20;18.90;75.00
20171;DHT22;10245;51.344;6.620;2023-07-20T08:12:44;18.60;72.20
20171;DHT22;10245;51.344;6.620;2023-07-20T08:15:11;18.30;72.80
20171;DHT22;10245;51.344;6.620;2023-07-20T08:17:36;18.00;74.20
20171;DHT22;10245;51.344;6.620;2023-07-20T08:20:00;18.10;74.80
20171;DHT22;10245;51.344;6.620;2023-07-20T08:22:23;18.60;73.40
20171;DHT22;10245;51.344;6.620;2023-07-20T08:24:46;19.20;73.70
20171;DHT22;10245;51.344;6.620;2023-07-20T08:27:10;20.20;70.60
20171;DHT22;10245;51.344;6.620;2023-07-20T08:29:33;20.00;68.60
20171;DHT22;10245;51.344;6.620;2023-07-20T08:31:58;20.00;71.60
20171;DHT22;10245;51.344;6.620;2023-07-20T08:34:21;19.90;72.00
20171;DHT22;10245;51.344;6.620;2023-07-20T08:36:53;20.00;69.40
20171;DHT22;10245;51.344;6.620;2023-07-20T08:39:16;19.60;70.20
20171;DHT22;10245;51.344;6.620;2023-07-20T08:41:41;19.40;72.20
20171;DHT22;10245;51.344;6.620;2023-07-20T08:44:04;19.80;68.00
20171;DHT22;10245;51.344;6.620;2023-07-20T08:46:29;19.50;68.00
20171;DHT22;10245;51.344;6.620;2023-07-20T08:48:55;19.40;69.50
20171;DHT22;10245;51.344;6.620;2023-07-20T08:51:20;19.50;71.90
20171;DHT22;10245;51.344;6.620;2023-07-20T08:53:45;19.10;71.80
20171;DHT22;10245;51.344;6.620;2023-07-20T08:56:10;19.50;72.00
20171;DHT22;10245;51.344;6.620;2023-07-20T08:58:35;20.30;73.40
20171;DHT22;10245;51.344;6.620;2023-07-20T09:00:59;20.10;67.60
20171;DHT22;10245;51.344;6.620;2023-07-20T09:03:24;19.80;68.10
20171;DHT22;10245;51.344;6.620;2023-07-20T09:05:49;19.90;68.00
20171;DHT22;10245;51.344;6.620;2023-07-20T09:08:12;19.90;66.90
20171;DHT22;10245;51.344;6.620;2023-07-20T09:10:36;20.80;67.90
20171;DHT22;10245;51.344;6.620;2023-07-20T09:12:59;20.50;61.00
20171;DHT22;10245;51.344;6.620;2023-07-20T09:15:23;20.30;64.80
20171;DHT22;10245;51.344;6.620;2023-07-20T09:17:47;21.20;64.20
20171;DHT22;10245;51.344;6.620;2023-07-20T09:20:11;21.30;62.80
20171;DHT22;10245;51.344;6.620;2023-07-20T09:22:36;21.30;66.30
20171;DHT22;10245;51.344;6.620;2023-07-20T09:25:01;21.10;61.90
20171;DHT22;10245;51.344;6.620;2023-07-20T09:27:35;21.50;65.20
20171;DHT22;10245;51.344;6.620;2023-07-20T09:29:59;20.50;62.80
20171;DHT22;10245;51.344;6.620;2023-07-20T09:32:23;20.30;66.00
20171;DHT22;10245;51.344;6.620;2023-07-20T09:34:47;20.50;61.90
20171;DHT22;10245;51.344;6.620;2023-07-20T09:37:12;20.70;60.90
20171;DHT22;10245;51.344;6.620;2023-07-20T09:39:43;20.80;63.20
20171;DHT22;10245;51.344;6.620;2023-07-20T09:42:11;22.10;65.50
20171;DHT22;10245;51.344;6.620;2023-07-20T09:44:38;21.70;60.60
20171;DHT22;10245;51.344;6.620;2023-07-20T09:47:05;21.40;57.70
20171;DHT22;10245;51.344;6.620;2023-07-20T09:49:28;20.30;58.10
20171;DHT22;10245;51.344;6.620;2023-07-20T09:52:12;20.50;63.50
20171;DHT22;10245;51.344;6.620;2023-07-20T09:54:57;20.90;57.80
20171;DHT22;10245;51.344;6.620;2023-07-20T09:57:21;20.80;61.00
20171;DHT22;10245;51.344;6.620;2023-07-20T09:59:44;21.00;58.40
20171;DHT22;10245;51.344;6.620;2023-07-20T10:02:14;20.70;60.00
20171;DHT22;10245;51.344;6.620;2023-07-20T10:04:43;21.40;60.50
20171;DHT22;10245;51.344;6.620;2023-07-20T10:07:10;21.70;60.80
20171;DHT22;10245;51.344;6.620;2023-07-20T10:09:36;21.50;59.00
20171;DHT22;10245;51.344;6.620;2023-07-20T10:12:04;21.10;60.80
20171;DHT22;10245;51.344;6.620;2023-07-20T10:14:41;20.50;59.60
20171;DHT22;10245;51.344;6.620;2023-07-20T10:17:11;20.50;60.90
20171;DHT22;10245;51.344;6.620;2023-07-20T10:19:42;20.60;61.20
20171;DHT22;10245;51.344;6.620;2023-07-20T10:22:14;20.70;58.60
20171;DHT22;10245;51.344;6.620;2023-07-20T10:24:45;20.80;57.20
20171;DHT22;10245;51.344;6.620;2023-07-20T10:27:12;20.80;57.30
20171;DHT22;10245;51.344;6.620;2023-07-20T10:29:35;21.90;58.50
20171;DHT22;10245;51.344;6.620;2023-07-20T10:32:00;21.60;58.60
20171;DHT22;10245;51.344;6.620;2023-07-20T10:34:24;21.70;60.70
20171;DHT22;10245;51.344;6.620;2023-07-20T10:36:47;22.00;52.40
20171;DHT22;10245;51.344;6.620;2023-07-20T10:39:22;22.00;59.20
20171;DHT22;10245;51.344;6.620;2023-07-20T10:41:46;21.30;56.90
20171;DHT22;10245;51.344;6.620;2023-07-20T10:44:11;21.10;56.00
20171;DHT22;10245;51.344;6.620;2023-07-20T10:46:42;20.90;56.70
20171;DHT22;10245;51.344;6.620;2023-07-20T10:49:08;20.90;61.40
20171;DHT22;10245;51.344;6.620;2023-07-20T10:51:39;21.30;60.30
20171;DHT22;10245;51.344;6.620;2023-07-20T10:54:03;21.50;54.90
20171;DHT22;10245;51.344;6.620;2023-07-20T10:56:27;22.40;61.10
20171;DHT22;10245;51.344;6.620;2023-07-20T10:58:56;21.50;53.30
20171;DHT22;10245;51.344;6.620;2023-07-20T11:01:27;21.50;54.30
20171;DHT22;10245;51.344;6.620;2023-07-20T11:03:57;21.60;55.70
20171;DHT22;10245;51.344;6.620;2023-07-20T11:06:32;22.50;52.70
20171;DHT22;10245;51.344;6.620;2023-07-20T11:09:04;22.00;55.00
20171;DHT22;10245;51.344;6.620;2023-07-20T11:11:33;21.90;55.50
20171;DHT22;10245;51.344;6.620;2023-07-20T11:13:58;22.30;58.50
20171;DHT22;10245;51.344;6.620;2023-07-20T11:16:33;21.80;53.50
20171;DHT22;10245;51.344;6.620;2023-07-20T11:18:58;22.10;59.70
20171;DHT22;10245;51.344;6.620;2023-07-20T11:21:22;22.40;53.90
20171;DHT22;10245;51.344;6.620;2023-07-20T11:23:47;21.50;52.30
20171;DHT22;10245;51.344;6.620;2023-07-20T11:26:11;21.60;55.80
20171;DHT22;10245;51.344;6.620;2023-07-20T11:28:34;22.20;53.40
20171;DHT22;10245;51.344;6.620;2023-07-20T11:30:58;22.00;52.00
20171;DHT22;10245;51.344;6.620;2023-07-20T11:33:22;22.50;53.90
20171;DHT22;10245;51.344;6.620;2023-07-20T11:35:46;23.00;52.30
20171;DHT22;10245;51.344;6.620;2023-07-20T11:38:12;23.50;56.70
20171;DHT22;10245;51.344;6.620;2023-07-20T11:40:36;23.50;51.60
20171;DHT22;10245;51.344;6.620;2023-07-20T11:42:59;23.10;53.10
20171;DHT22;10245;51.344;6.620;2023-07-20T11:45:25;23.10;54.00
20171;DHT22;10245;51.344;6.620;2023-07-20T11:47:58;22.50;51.40
20171;DHT22;10245;51.344;6.620;2023-07-20T11:50:23;22.20;51.00
20171;DHT22;10245;51.344;6.620;2023-07-20T11:52:47;22.40;54.00
20171;DHT22;10245;51.344;6.620;2023-07-20T11:55:11;22.00;52.10
20171;DHT22;10245;51.344;6.620;2023-07-20T11:57:35;21.90;53.40
20171;DHT22;10245;51.344;6.620;2023-07-20T12:00:02;21.90;57.40
20171;DHT22;10245;51.344;6.620;2023-07-20T12:02:31;21.80;52.30
20171;DHT22;10245;51.344;6.620;2023-07-20T12:04:54;21.80;56.40
20171;DHT22;10245;51.344;6.620;2023-07-20T12:07:20;21.80;57.40
20171;DHT22;10245;51.344;6.620;2023-07-20T12:09:43;21.90;56.30
20171;DHT22;10245;51.344;6.620;2023-07-20T12:12:12;22.00;56.90
20171;DHT22;10245;51.344;6.620;2023-07-20T12:14:36;21.50;53.10
20171;DHT22;10245;51.344;6.620;2023-07-20T12:16:59;21.50;58.00
20171;DHT22;10245;51.344;6.620;2023-07-20T12:19:25;21.50;56.00
20171;DHT22;10245;51.344;6.620;2023-07-20T12:21:48;21.50;54.90
20171;DHT22;10245;51.344;6.620;2023-07-20T12:24:13;21.50;52.60
20171;DHT22;10245;51.344;6.620;2023-07-20T12:26:37;21.50;55.40
20171;DHT22;10245;51.344;6.620;2023-07-20T12:29:00;21.60;53.40
20171;DHT22;10245;51.344;6.620;2023-07-20T12:31:25;21.70;54.20
20171;DHT22;10245;51.344;6.620;2023-07-20T12:33:49;21.70;55.10
20171;DHT22;10245;51.344;6.620;2023-07-20T12:36:12;21.80;54.20
20171;DHT22;10245;51.344;6.620;2023-07-20T12:38:35;21.50;52.70
20171;DHT22;10245;51.344;6.620;2023-07-20T12:41:02;21.80;56.10
20171;DHT22;10245;51.344;6.620;2023-07-20T12:43:26;21.90;59.60
20171;DHT22;10245;51.344;6.620;2023-07-20T12:45:49;21.70;52.70
20171;DHT22;10245;51.344;6.620;2023-07-20T12:48:13;21.80;56.90
20171;DHT22;10245;51.344;6.620;2023-07-20T12:50:36;21.90;59.20
20171;DHT22;10245;51.344;6.620;2023-07-20T12:52:59;21.50;52.50
20171;DHT22;10245;51.344;6.620;2023-07-20T12:55:25;21.50;52.60
20171;DHT22;10245;51.344;6.620;2023-07-20T12:57:50;21.40;53.60
20171;DHT22;10245;51.344;6.620;2023-07-20T13:00:15;21.40;54.60
20171;DHT22;10245;51.344;6.620;2023-07-20T13:02:39;21.40;54.70
20171;DHT22;10245;51.344;6.620;2023-07-20T13:05:03;21.50;56.30
20171;DHT22;10245;51.344;6.620;2023-07-20T13:07:31;21.70;57.40
20171;DHT22;10245;51.344;6.620;2023-07-20T13:09:58;22.10;55.50
20171;DHT22;10245;51.344;6.620;2023-07-20T13:12:22;22.40;51.80
20171;DHT22;10245;51.344;6.620;2023-07-20T13:14:46;22.30;51.40
20171;DHT22;10245;51.344;6.620;2023-07-20T13:17:10;22.20;52.70
20171;DHT22;10245;51.344;6.620;2023-07-20T13:19:33;22.00;51.80
20171;DHT22;10245;51.344;6.620;2023-07-20T13:21:56;21.90;55.00
20171;DHT22;10245;51.344;6.620;2023-07-20T13:24:19;22.00;55.90
20171;DHT22;10245;51.344;6.620;2023-07-20T13:26:42;22.00;52.20
20171;DHT22;10245;51.344;6.620;2023-07-20T13:29:06;22.00;53.50
20171;DHT22;10245;51.344;6.620;2023-07-20T13:31:31;22.30;56.50
20171;DHT22;10245;51.344;6.620;2023-07-20T13:33:56;22.30;56.50
20171;DHT22;10245;51.344;6.620;2023-07-20T13:36:22;22.50;51.40
20171;DHT22;10245;51.344;6.620;2023-07-20T13:38:45;22.30;54.90
20171;DHT22;10245;51.344;6.620;2023-07-20T13:41:10;22.40;54.40
20171;DHT22;10245;51.344;6.620;2023-07-20T13:43:33;22.00;53.70
20171;DHT22;10245;51.344;6.620;2023-07-20T13:45:56;21.90;50.90
20171;DHT22;10245;51.344;6.620;2023-07-20T13:48:21;22.00;53.80
20171;DHT22;10245;51.344;6.620;2023-07-20T13:50:48;22.10;52.20
20171;DHT22;10245;51.344;6.620;2023-07-20T13:53:15;22.10;51.80
20171;DHT22;10245;51.344;6.620;2023-07-20T13:55:41;22.10;52.50
20171;DHT22;10245;51.344;6.620;2023-07-20T13:58:07;22.60;52.70
20171;DHT22;10245;51.344;6.620;2023-07-20T14:00:33;22.50;49.50
20171;DHT22;10245;51.344;6.620;2023-07-20T14:02:57;22.40;51.70
20171;DHT22;10245;51.344;6.620;2023-07-20T14:05:24;22.20;50.40
20171;DHT22;10245;51.344;6.620;2023-07-20T14:07:51;22.00;50.00
20171;DHT22;10245;51.344;6.620;2023-07-20T14:10:14;22.00;51.20
20171;DHT22;10245;51.344;6.620;2023-07-20T14:12:40;22.10;50.90
20171;DHT22;10245;51.344;6.620;2023-07-20T14:15:04;22.20;52.30
20171;DHT22;10245;51.344;6.620;2023-07-20T14:17:28;22.30;52.60
20171;DHT22;10245;51.344;6.620;2023-07-20T14:19:53;22.50;49.90
20171;DHT22;10245;51.344;6.620;2023-07-20T14:22:18;22.70;49.20
20171;DHT22;10245;51.344;6.620;2023-07-20T14:24:41;23.20;51.00
20171;DHT22;10245;51.344;6.620;2023-07-20T14:27:13;23.60;52.30
20171;DHT22;10245;51.344;6.620;2023-07-20T14:29:40;23.60;48.70
20171;DHT22;10245;51.344;6.620;2023-07-20T14:32:04;23.40;46.20
20171;DHT22;10245;51.344;6.620;2023-07-20T14:34:29;23.50;45.00
20171;DHT22;10245;51.344;6.620;2023-07-20T14:36:55;23.20;50.40
20171;DHT22;10245;51.344;6.620;2023-07-20T14:39:21;23.00;46.20
20171;DHT22;10245;51.344;6.620;2023-07-20T14:41:44;23.10;48.30
20171;DHT22;10245;51.344;6.620;2023-07-20T14:44:09;23.40;47.90
20171;DHT22;10245;51.344;6.620;2023-07-20T14:46:32;23.70;47.00
20171;DHT22;10245;51.344;6.620;2023-07-20T14:48:55;23.70;45.40
20171;DHT22;10245;51.344;6.620;2023-07-20T14:51:18;23.80;45.90
20171;DHT22;10245;51.344;6.620;2023-07-20T14:53:42;23.30;45.80
20171;DHT22;10245;51.344;6.620;2023-07-20T14:56:05;22.90;47.90
20171;DHT22;10245;51.344;6.620;2023-07-20T14:58:29;23.10;53.00
20171;DHT22;10245;51.344;6.620;2023-07-20T15:00:58;22.90;48.10
20171;DHT22;10245;51.344;6.620;2023-07-20T15:03:21;22.80;47.80
20171;DHT22;10245;51.344;6.620;2023-07-20T15:05:44;22.90;49.90
20171;DHT22;10245;51.344;6.620;2023-07-20T15:08:07;23.00;49.60
20171;DHT22;10245;51.344;6.620;2023-07-20T15:10:31;23.10;49.90
20171;DHT22;10245;51.344;6.620;2023-07-20T15:12:55;24.00;52.00
20171;DHT22;10245;51.344;6.620;2023-07-20T15:15:18;24.20;48.40
20171;DHT22;10245;51.344;6.620;2023-07-20T15:17:44;24.10;48.70
20171;DHT22;10245;51.344;6.620;2023-07-20T15:20:09;24.40;46.30